AEE930 LGAV-HECA
Flight info
| Callsign | AEE930 |
|---|---|
| Flight time | 1h 29m |
| Altitude | 35000 |
| Route | KEA UN132 KUPIS DCT LAPSO UN132 KUMBI L612 BLT DCT |
| Aircraft | A321/M-V/N |
Departure
| Time | 2026-05-03 22:22 |
|---|---|
| Airport | Athens Eleftherios Venizelos International Airport (LGAV) |
Arrival
| Time | 2026-05-03 23:51 |
|---|---|
| Airport | Cairo International Airport (HECA) |
| Time | Latitude | Longitude | Altitude | Speed | Heading |
|---|---|---|---|---|---|
| 2026-05-03 22:06 | 37.93375 | 23.94609 | 301 ft | 0 kts | 307° |
| 2026-05-03 22:11 | 37.93374 | 23.94610 | 301 ft | 2 kts | 307° |
| 2026-05-03 22:11 | 37.93361 | 23.94632 | 302 ft | 3 kts | 307° |
| 2026-05-03 22:11 | 37.93349 | 23.94653 | 301 ft | 1 kts | 307° |
| 2026-05-03 22:11 | 37.93338 | 23.94674 | 301 ft | 3 kts | 287° |
| 2026-05-03 22:12 | 37.93336 | 23.94699 | 302 ft | 3 kts | 246° |
| 2026-05-03 22:12 | 37.93346 | 23.94717 | 302 ft | 0 kts | 217° |
| 2026-05-03 22:15 | 37.93345 | 23.94716 | 301 ft | 0 kts | 217° |
| 2026-05-03 22:15 | 37.93335 | 23.94706 | 303 ft | 3 kts | 216° |
| 2026-05-03 22:16 | 37.93314 | 23.94686 | 301 ft | 4 kts | 218° |
| 2026-05-03 22:16 | 37.93287 | 23.94660 | 305 ft | 6 kts | 217° |
| 2026-05-03 22:16 | 37.93252 | 23.94627 | 301 ft | 7 kts | 217° |
| 2026-05-03 22:16 | 37.93207 | 23.94601 | 302 ft | 8 kts | 191° |
| 2026-05-03 22:17 | 37.93148 | 23.94596 | 303 ft | 9 kts | 180° |
| 2026-05-03 22:17 | 37.93081 | 23.94591 | 301 ft | 10 kts | 196° |
| 2026-05-03 22:17 | 37.93021 | 23.94540 | 304 ft | 10 kts | 217° |
| 2026-05-03 22:17 | 37.92978 | 23.94498 | 302 ft | 8 kts | 217° |
| 2026-05-03 22:18 | 37.92932 | 23.94455 | 303 ft | 9 kts | 217° |
| 2026-05-03 22:18 | 37.92881 | 23.94407 | 302 ft | 10 kts | 217° |
| 2026-05-03 22:18 | 37.92823 | 23.94352 | 302 ft | 11 kts | 217° |
| 2026-05-03 22:18 | 37.92760 | 23.94293 | 304 ft | 12 kts | 216° |
| 2026-05-03 22:19 | 37.92714 | 23.94250 | 304 ft | 13 kts | 217° |
| 2026-05-03 22:19 | 37.92644 | 23.94191 | 304 ft | 7 kts | 191° |
| 2026-05-03 22:19 | 37.92603 | 23.94215 | 305 ft | 7 kts | 139° |
| 2026-05-03 22:19 | 37.92573 | 23.94262 | 303 ft | 7 kts | 125° |
| 2026-05-03 22:20 | 37.92556 | 23.94293 | 306 ft | 6 kts | 126° |
| 2026-05-03 22:20 | 37.92528 | 23.94338 | 306 ft | 6 kts | 127° |
| 2026-05-03 22:20 | 37.92508 | 23.94374 | 307 ft | 6 kts | 126° |
| 2026-05-03 22:20 | 37.92489 | 23.94422 | 310 ft | 7 kts | 102° |
| 2026-05-03 22:21 | 37.92521 | 23.94492 | 309 ft | 15 kts | 37° |
| 2026-05-03 22:21 | 37.92744 | 23.94697 | 303 ft | 75 kts | 37° |
| 2026-05-03 22:21 | 37.93353 | 23.95278 | 295 ft | 142 kts | 36° |
| 2026-05-03 22:21 | 37.94303 | 23.96111 | 457 ft | 178 kts | 32° |
| 2026-05-03 22:22 | 37.95274 | 23.97030 | 1297 ft | 171 kts | 34° |
| 2026-05-03 22:22 | 37.96192 | 23.97939 | 2193 ft | 161 kts | 34° |
| 2026-05-03 22:22 | 37.97056 | 23.98789 | 2963 ft | 154 kts | 34° |
| 2026-05-03 22:22 | 37.97918 | 23.99621 | 3509 ft | 161 kts | 33° |
| 2026-05-03 22:23 | 37.98865 | 24.00530 | 3788 ft | 182 kts | 34° |
| 2026-05-03 22:23 | 37.99922 | 24.01542 | 4132 ft | 198 kts | 34° |
| 2026-05-03 22:23 | 38.01059 | 24.02641 | 4466 ft | 215 kts | 34° |
| 2026-05-03 22:23 | 38.02306 | 24.03840 | 4727 ft | 238 kts | 34° |
| 2026-05-03 22:24 | 38.03604 | 24.05213 | 5395 ft | 245 kts | 45° |
| 2026-05-03 22:24 | 38.04455 | 24.07140 | 6128 ft | 259 kts | 70° |
| 2026-05-03 22:24 | 38.04465 | 24.09470 | 6853 ft | 277 kts | 101° |
| 2026-05-03 22:24 | 38.03472 | 24.11622 | 7522 ft | 295 kts | 133° |
| 2026-05-03 22:25 | 38.01675 | 24.12939 | 8189 ft | 304 kts | 159° |
| 2026-05-03 22:25 | 37.99644 | 24.13773 | 8820 ft | 310 kts | 163° |
| 2026-05-03 22:25 | 37.97548 | 24.14497 | 9532 ft | 313 kts | 165° |
| 2026-05-03 22:25 | 37.95421 | 24.15165 | 10211 ft | 317 kts | 166° |
| 2026-05-03 22:26 | 37.93245 | 24.15862 | 10592 ft | 331 kts | 166° |
| 2026-05-03 22:26 | 37.90964 | 24.16650 | 10777 ft | 350 kts | 163° |
| 2026-05-03 22:26 | 37.88572 | 24.17544 | 11049 ft | 363 kts | 163° |
| 2026-05-03 22:26 | 37.86134 | 24.18481 | 11587 ft | 368 kts | 163° |
| 2026-05-03 22:27 | 37.83678 | 24.19429 | 12225 ft | 370 kts | 163° |
| 2026-05-03 22:27 | 37.81203 | 24.20379 | 12837 ft | 373 kts | 163° |
| 2026-05-03 22:27 | 37.78703 | 24.21326 | 13420 ft | 377 kts | 163° |
| 2026-05-03 22:27 | 37.76175 | 24.22273 | 14006 ft | 380 kts | 164° |
| 2026-05-03 22:28 | 37.73661 | 24.23205 | 14538 ft | 383 kts | 164° |
| 2026-05-03 22:28 | 37.71092 | 24.24153 | 15068 ft | 386 kts | 164° |
| 2026-05-03 22:28 | 37.68501 | 24.25111 | 15573 ft | 390 kts | 164° |
| 2026-05-03 22:28 | 37.65890 | 24.26082 | 16069 ft | 393 kts | 164° |
| 2026-05-03 22:29 | 37.63253 | 24.27065 | 16583 ft | 397 kts | 163° |
| 2026-05-03 22:29 | 37.60593 | 24.28058 | 17097 ft | 400 kts | 163° |
| 2026-05-03 22:29 | 37.57935 | 24.29170 | 17594 ft | 403 kts | 156° |
| 2026-05-03 22:29 | 37.55442 | 24.30812 | 18108 ft | 405 kts | 146° |
| 2026-05-03 22:30 | 37.53211 | 24.32983 | 18583 ft | 406 kts | 135° |
| 2026-05-03 22:30 | 37.51197 | 24.35487 | 19038 ft | 408 kts | 133° |
| 2026-05-03 22:30 | 37.49174 | 24.38013 | 19513 ft | 410 kts | 133° |
| 2026-05-03 22:30 | 37.47141 | 24.40536 | 19979 ft | 412 kts | 133° |
| 2026-05-03 22:31 | 37.45088 | 24.43076 | 20471 ft | 413 kts | 133° |
| 2026-05-03 22:31 | 37.43038 | 24.45613 | 20907 ft | 415 kts | 133° |
| 2026-05-03 22:31 | 37.40995 | 24.48142 | 21300 ft | 419 kts | 133° |
| 2026-05-03 22:31 | 37.38916 | 24.50715 | 21821 ft | 418 kts | 134° |
| 2026-05-03 22:32 | 37.36836 | 24.53286 | 22242 ft | 421 kts | 134° |
| 2026-05-03 22:32 | 37.34748 | 24.55862 | 22747 ft | 420 kts | 134° |
| 2026-05-03 22:32 | 37.32658 | 24.58440 | 23203 ft | 422 kts | 134° |
| 2026-05-03 22:32 | 37.30551 | 24.61045 | 23527 ft | 427 kts | 134° |
| 2026-05-03 22:33 | 37.28435 | 24.63660 | 23914 ft | 429 kts | 134° |
| 2026-05-03 22:33 | 37.26296 | 24.66297 | 24170 ft | 433 kts | 134° |
| 2026-05-03 22:33 | 37.24136 | 24.68950 | 24507 ft | 435 kts | 134° |
| 2026-05-03 22:33 | 37.21968 | 24.71606 | 24846 ft | 438 kts | 134° |
| 2026-05-03 22:34 | 37.19782 | 24.74282 | 25176 ft | 440 kts | 134° |
| 2026-05-03 22:34 | 37.17590 | 24.76966 | 25498 ft | 441 kts | 134° |
| 2026-05-03 22:34 | 37.15379 | 24.79673 | 25760 ft | 446 kts | 134° |
| 2026-05-03 22:34 | 37.13155 | 24.82392 | 26050 ft | 448 kts | 134° |
| 2026-05-03 22:35 | 37.10918 | 24.85129 | 26322 ft | 452 kts | 134° |
| 2026-05-03 22:35 | 37.08662 | 24.87894 | 26600 ft | 455 kts | 134° |
| 2026-05-03 22:35 | 37.06394 | 24.90674 | 26832 ft | 459 kts | 134° |
| 2026-05-03 22:35 | 37.04115 | 24.93461 | 27074 ft | 462 kts | 134° |
| 2026-05-03 22:36 | 37.01804 | 24.96278 | 27349 ft | 465 kts | 134° |
| 2026-05-03 22:36 | 36.99478 | 24.99105 | 27611 ft | 468 kts | 134° |
| 2026-05-03 22:36 | 36.97135 | 25.01949 | 27897 ft | 471 kts | 134° |
| 2026-05-03 22:36 | 36.94780 | 25.04807 | 28212 ft | 472 kts | 134° |
| 2026-05-03 22:37 | 36.92418 | 25.07672 | 28483 ft | 475 kts | 134° |
| 2026-05-03 22:37 | 36.90035 | 25.10552 | 28771 ft | 477 kts | 135° |
| 2026-05-03 22:37 | 36.87636 | 25.13423 | 29037 ft | 479 kts | 135° |
| 2026-05-03 22:37 | 36.85211 | 25.16299 | 29279 ft | 482 kts | 135° |
| 2026-05-03 22:38 | 36.82767 | 25.19186 | 29520 ft | 485 kts | 135° |
| 2026-05-03 22:38 | 36.80312 | 25.22088 | 29750 ft | 488 kts | 135° |
| 2026-05-03 22:38 | 36.77879 | 25.24967 | 29949 ft | 490 kts | 135° |
| 2026-05-03 22:38 | 36.75362 | 25.27948 | 30085 ft | 495 kts | 135° |
| 2026-05-03 22:39 | 36.72888 | 25.30880 | 30214 ft | 499 kts | 135° |
| 2026-05-03 22:39 | 36.70366 | 25.33866 | 30384 ft | 501 kts | 135° |
| 2026-05-03 22:39 | 36.67834 | 25.36854 | 30633 ft | 501 kts | 135° |
| 2026-05-03 22:39 | 36.65304 | 25.39833 | 30826 ft | 501 kts | 136° |
| 2026-05-03 22:40 | 36.62783 | 25.42828 | 31071 ft | 500 kts | 135° |
| 2026-05-03 22:40 | 36.60282 | 25.45848 | 31306 ft | 500 kts | 135° |
| 2026-05-03 22:40 | 36.57801 | 25.48878 | 31532 ft | 500 kts | 135° |
| 2026-05-03 22:40 | 36.55321 | 25.51918 | 31753 ft | 500 kts | 135° |
| 2026-05-03 22:41 | 36.52844 | 25.54949 | 31969 ft | 500 kts | 135° |
| 2026-05-03 22:41 | 36.50346 | 25.57990 | 32190 ft | 500 kts | 135° |
| 2026-05-03 22:41 | 36.47856 | 25.61006 | 32388 ft | 501 kts | 135° |
| 2026-05-03 22:41 | 36.45353 | 25.64026 | 32529 ft | 503 kts | 135° |
| 2026-05-03 22:42 | 36.42842 | 25.67049 | 32734 ft | 503 kts | 136° |
| 2026-05-03 22:42 | 36.40328 | 25.70075 | 32967 ft | 503 kts | 136° |
| 2026-05-03 22:42 | 36.37856 | 25.73051 | 33181 ft | 503 kts | 136° |
| 2026-05-03 22:42 | 36.35340 | 25.76075 | 33388 ft | 503 kts | 136° |
| 2026-05-03 22:43 | 36.32829 | 25.79094 | 33592 ft | 503 kts | 136° |
| 2026-05-03 22:43 | 36.30320 | 25.82110 | 33793 ft | 503 kts | 136° |
| 2026-05-03 22:43 | 36.27809 | 25.85122 | 33983 ft | 503 kts | 136° |
| 2026-05-03 22:43 | 36.25289 | 25.88139 | 34157 ft | 503 kts | 136° |
| 2026-05-03 22:44 | 36.22772 | 25.91152 | 34323 ft | 503 kts | 136° |
| 2026-05-03 22:44 | 36.20253 | 25.94152 | 34497 ft | 503 kts | 137° |
| 2026-05-03 22:44 | 36.17729 | 25.97139 | 34684 ft | 502 kts | 137° |
| 2026-05-03 22:44 | 36.15198 | 26.00115 | 34835 ft | 502 kts | 137° |
| 2026-05-03 22:45 | 36.12663 | 26.03091 | 34976 ft | 503 kts | 137° |
| 2026-05-03 22:45 | 36.07603 | 26.09024 | 35030 ft | 500 kts | 137° |
| 2026-05-03 22:46 | 36.02567 | 26.14926 | 35025 ft | 499 kts | 137° |
| 2026-05-03 22:46 | 35.97538 | 26.20820 | 35028 ft | 499 kts | 137° |
| 2026-05-03 22:47 | 35.92540 | 26.26679 | 35014 ft | 498 kts | 138° |
| 2026-05-03 22:47 | 35.87520 | 26.32546 | 35013 ft | 497 kts | 138° |
| 2026-05-03 22:48 | 35.82497 | 26.38396 | 34986 ft | 497 kts | 139° |
| 2026-05-03 22:48 | 35.77451 | 26.44254 | 34995 ft | 499 kts | 139° |
| 2026-05-03 22:49 | 35.72404 | 26.50118 | 35004 ft | 499 kts | 139° |
| 2026-05-03 22:49 | 35.67346 | 26.55992 | 35005 ft | 500 kts | 139° |
| 2026-05-03 22:50 | 35.62290 | 26.61848 | 35016 ft | 500 kts | 139° |
| 2026-05-03 22:50 | 35.57219 | 26.67705 | 35002 ft | 499 kts | 139° |
| 2026-05-03 22:51 | 35.52158 | 26.73545 | 34987 ft | 499 kts | 139° |
| 2026-05-03 22:51 | 35.47083 | 26.79374 | 34972 ft | 500 kts | 140° |
| 2026-05-03 22:52 | 35.42041 | 26.85171 | 34973 ft | 500 kts | 139° |
| 2026-05-03 22:52 | 35.36970 | 26.90993 | 34984 ft | 499 kts | 140° |
| 2026-05-03 22:53 | 35.31898 | 26.96799 | 34980 ft | 498 kts | 140° |
| 2026-05-03 22:53 | 35.26832 | 27.02583 | 34974 ft | 497 kts | 140° |
| 2026-05-03 22:54 | 35.21769 | 27.08352 | 34976 ft | 497 kts | 140° |
| 2026-05-03 22:54 | 35.16739 | 27.14076 | 34993 ft | 497 kts | 140° |
| 2026-05-03 22:55 | 35.11646 | 27.19856 | 34991 ft | 496 kts | 141° |
| 2026-05-03 22:55 | 35.06629 | 27.25549 | 34988 ft | 495 kts | 141° |
| 2026-05-03 22:56 | 35.01582 | 27.31269 | 35008 ft | 495 kts | 141° |
| 2026-05-03 22:56 | 34.96536 | 27.36965 | 34993 ft | 494 kts | 141° |
| 2026-05-03 22:57 | 34.91483 | 27.42653 | 34973 ft | 495 kts | 142° |
| 2026-05-03 22:57 | 34.86404 | 27.48349 | 34946 ft | 498 kts | 142° |
| 2026-05-03 22:58 | 34.81301 | 27.54073 | 34954 ft | 500 kts | 142° |
| 2026-05-03 22:58 | 34.76176 | 27.59812 | 34975 ft | 501 kts | 142° |
| 2026-05-03 22:59 | 34.71069 | 27.65512 | 34982 ft | 502 kts | 142° |
| 2026-05-03 22:59 | 34.65925 | 27.71257 | 34989 ft | 503 kts | 142° |
| 2026-05-03 23:00 | 34.60773 | 27.77007 | 34960 ft | 503 kts | 143° |
| 2026-05-03 23:00 | 34.55614 | 27.82739 | 34964 ft | 503 kts | 143° |
| 2026-05-03 23:01 | 34.50442 | 27.88476 | 34975 ft | 504 kts | 143° |
| 2026-05-03 23:01 | 34.45272 | 27.94213 | 34982 ft | 504 kts | 143° |
| 2026-05-03 23:02 | 34.40095 | 27.99937 | 34996 ft | 504 kts | 143° |
| 2026-05-03 23:02 | 34.34916 | 28.05654 | 34999 ft | 504 kts | 143° |
| 2026-05-03 23:03 | 34.29728 | 28.11369 | 34962 ft | 504 kts | 143° |
| 2026-05-03 23:03 | 34.24542 | 28.17062 | 34978 ft | 504 kts | 144° |
| 2026-05-03 23:04 | 34.19392 | 28.22728 | 34995 ft | 504 kts | 143° |
| 2026-05-03 23:04 | 34.14202 | 28.28438 | 35002 ft | 504 kts | 143° |
| 2026-05-03 23:05 | 34.09007 | 28.34124 | 35001 ft | 504 kts | 144° |
| 2026-05-03 23:05 | 34.03792 | 28.39800 | 35005 ft | 504 kts | 144° |
| 2026-05-03 23:06 | 33.98587 | 28.45480 | 35010 ft | 504 kts | 144° |
| 2026-05-03 23:06 | 33.93386 | 28.51152 | 34977 ft | 504 kts | 145° |
| 2026-05-03 23:07 | 33.88178 | 28.56823 | 34995 ft | 505 kts | 145° |
| 2026-05-03 23:07 | 33.82959 | 28.62480 | 35003 ft | 505 kts | 145° |
| 2026-05-03 23:08 | 33.77739 | 28.68132 | 35006 ft | 505 kts | 145° |
| 2026-05-03 23:08 | 33.72519 | 28.73773 | 35012 ft | 504 kts | 145° |
| 2026-05-03 23:09 | 33.67334 | 28.79448 | 35010 ft | 505 kts | 144° |
| 2026-05-03 23:09 | 33.62251 | 28.85195 | 34977 ft | 505 kts | 144° |
| 2026-05-03 23:10 | 33.57143 | 28.90989 | 34993 ft | 505 kts | 144° |
| 2026-05-03 23:10 | 33.52011 | 28.96759 | 34990 ft | 505 kts | 145° |
| 2026-05-03 23:11 | 33.47743 | 29.01523 | 35008 ft | 504 kts | 145° |
| 2026-05-03 23:11 | 33.42609 | 29.07238 | 35019 ft | 504 kts | 145° |
| 2026-05-03 23:12 | 33.37473 | 29.12949 | 35010 ft | 503 kts | 145° |
| 2026-05-03 23:12 | 33.32347 | 29.18650 | 34969 ft | 503 kts | 146° |
| 2026-05-03 23:13 | 33.27223 | 29.24345 | 34999 ft | 503 kts | 146° |
| 2026-05-03 23:13 | 33.22095 | 29.30033 | 35015 ft | 502 kts | 146° |
| 2026-05-03 23:14 | 33.16971 | 29.35699 | 35023 ft | 502 kts | 146° |
| 2026-05-03 23:14 | 33.11854 | 29.41353 | 35033 ft | 501 kts | 146° |
| 2026-05-03 23:15 | 33.06738 | 29.46995 | 35034 ft | 500 kts | 146° |
| 2026-05-03 23:15 | 33.01623 | 29.52610 | 35032 ft | 500 kts | 146° |
| 2026-05-03 23:16 | 32.96546 | 29.58193 | 34990 ft | 500 kts | 147° |
| 2026-05-03 23:16 | 32.91404 | 29.63843 | 35012 ft | 500 kts | 147° |
| 2026-05-03 23:17 | 32.86319 | 29.69417 | 35030 ft | 500 kts | 147° |
| 2026-05-03 23:17 | 32.81199 | 29.75011 | 35032 ft | 500 kts | 147° |
| 2026-05-03 23:18 | 32.76073 | 29.80601 | 35034 ft | 500 kts | 147° |
| 2026-05-03 23:18 | 32.70951 | 29.86182 | 35030 ft | 500 kts | 147° |
| 2026-05-03 23:19 | 32.65832 | 29.91763 | 34987 ft | 499 kts | 147° |
| 2026-05-03 23:19 | 32.60703 | 29.97337 | 35017 ft | 499 kts | 147° |
| 2026-05-03 23:20 | 32.55611 | 30.02858 | 35034 ft | 499 kts | 147° |
| 2026-05-03 23:20 | 32.50491 | 30.08409 | 35040 ft | 499 kts | 147° |
| 2026-05-03 23:21 | 32.45357 | 30.13952 | 35040 ft | 499 kts | 148° |
| 2026-05-03 23:21 | 32.40217 | 30.19483 | 35042 ft | 498 kts | 148° |
| 2026-05-03 23:22 | 32.32529 | 30.27753 | 34998 ft | 498 kts | 148° |
| 2026-05-03 23:22 | 32.27408 | 30.33251 | 35037 ft | 497 kts | 148° |
| 2026-05-03 23:23 | 32.22282 | 30.38746 | 35051 ft | 497 kts | 148° |
| 2026-05-03 23:23 | 32.17163 | 30.44234 | 35038 ft | 496 kts | 148° |
| 2026-05-03 23:24 | 32.12056 | 30.49687 | 35051 ft | 494 kts | 149° |
| 2026-05-03 23:24 | 32.06987 | 30.55084 | 35065 ft | 494 kts | 148° |
| 2026-05-03 23:25 | 32.01906 | 30.60509 | 34622 ft | 484 kts | 149° |
| 2026-05-03 23:25 | 31.99422 | 30.63154 | 34218 ft | 480 kts | 149° |
| 2026-05-03 23:25 | 31.96983 | 30.65742 | 33755 ft | 476 kts | 150° |
| 2026-05-03 23:26 | 31.94532 | 30.68338 | 33246 ft | 472 kts | 150° |
| 2026-05-03 23:26 | 31.92098 | 30.70916 | 32722 ft | 469 kts | 150° |
| 2026-05-03 23:26 | 31.89676 | 30.73479 | 32204 ft | 466 kts | 150° |
| 2026-05-03 23:26 | 31.87272 | 30.76024 | 31693 ft | 464 kts | 150° |
| 2026-05-03 23:27 | 31.84885 | 30.78553 | 31192 ft | 461 kts | 150° |
| 2026-05-03 23:27 | 31.82508 | 30.81069 | 30707 ft | 458 kts | 150° |
| 2026-05-03 23:27 | 31.80144 | 30.83572 | 30223 ft | 456 kts | 150° |
| 2026-05-03 23:27 | 31.77792 | 30.86059 | 29683 ft | 453 kts | 150° |
| 2026-05-03 23:28 | 31.75454 | 30.88528 | 29158 ft | 450 kts | 150° |
| 2026-05-03 23:28 | 31.73136 | 30.90975 | 28650 ft | 447 kts | 150° |
| 2026-05-03 23:28 | 31.70833 | 30.93407 | 28155 ft | 444 kts | 150° |
| 2026-05-03 23:28 | 31.68543 | 30.95820 | 27605 ft | 440 kts | 149° |
| 2026-05-03 23:29 | 31.66280 | 30.98205 | 27189 ft | 434 kts | 149° |
| 2026-05-03 23:29 | 31.64043 | 31.00561 | 26772 ft | 430 kts | 149° |
| 2026-05-03 23:29 | 31.61825 | 31.02891 | 26316 ft | 427 kts | 149° |
| 2026-05-03 23:29 | 31.59620 | 31.05204 | 25854 ft | 424 kts | 149° |
| 2026-05-03 23:30 | 31.57427 | 31.07500 | 25392 ft | 421 kts | 149° |
| 2026-05-03 23:30 | 31.55242 | 31.09776 | 24953 ft | 417 kts | 152° |
| 2026-05-03 23:30 | 31.52962 | 31.11685 | 24519 ft | 399 kts | 162° |
| 2026-05-03 23:30 | 31.50525 | 31.13073 | 24073 ft | 382 kts | 173° |
| 2026-05-03 23:31 | 31.48038 | 31.14014 | 23610 ft | 373 kts | 176° |
| 2026-05-03 23:31 | 31.45554 | 31.14899 | 23066 ft | 372 kts | 176° |
| 2026-05-03 23:31 | 31.43089 | 31.15783 | 22557 ft | 369 kts | 176° |
| 2026-05-03 23:31 | 31.40646 | 31.16668 | 22075 ft | 366 kts | 176° |
| 2026-05-03 23:32 | 31.38220 | 31.17550 | 21551 ft | 364 kts | 175° |
| 2026-05-03 23:32 | 31.35811 | 31.18423 | 21078 ft | 361 kts | 175° |
| 2026-05-03 23:32 | 31.33413 | 31.19287 | 20623 ft | 359 kts | 175° |
| 2026-05-03 23:32 | 31.31039 | 31.20139 | 20158 ft | 356 kts | 175° |
| 2026-05-03 23:33 | 31.28676 | 31.20984 | 19715 ft | 354 kts | 175° |
| 2026-05-03 23:33 | 31.26326 | 31.21825 | 19274 ft | 352 kts | 175° |
| 2026-05-03 23:33 | 31.23997 | 31.22659 | 18830 ft | 349 kts | 175° |
| 2026-05-03 23:33 | 31.21686 | 31.23487 | 18415 ft | 347 kts | 175° |
| 2026-05-03 23:34 | 31.19384 | 31.24315 | 17938 ft | 345 kts | 175° |
| 2026-05-03 23:34 | 31.17097 | 31.25140 | 17427 ft | 343 kts | 175° |
| 2026-05-03 23:34 | 31.14825 | 31.25957 | 16946 ft | 341 kts | 175° |
| 2026-05-03 23:34 | 31.12578 | 31.26763 | 16623 ft | 334 kts | 175° |
| 2026-05-03 23:35 | 31.10373 | 31.27554 | 16287 ft | 330 kts | 175° |
| 2026-05-03 23:35 | 31.08189 | 31.28334 | 15942 ft | 327 kts | 175° |
| 2026-05-03 23:35 | 31.06019 | 31.29107 | 15590 ft | 325 kts | 175° |
| 2026-05-03 23:35 | 31.03893 | 31.29862 | 15261 ft | 323 kts | 174° |
| 2026-05-03 23:36 | 31.01746 | 31.30627 | 14919 ft | 321 kts | 174° |
| 2026-05-03 23:36 | 30.99614 | 31.31388 | 14581 ft | 320 kts | 174° |
| 2026-05-03 23:36 | 30.97496 | 31.32144 | 14252 ft | 318 kts | 174° |
| 2026-05-03 23:36 | 30.95388 | 31.32898 | 13930 ft | 316 kts | 174° |
| 2026-05-03 23:37 | 30.93295 | 31.33647 | 13572 ft | 314 kts | 174° |
| 2026-05-03 23:37 | 30.91209 | 31.34392 | 13204 ft | 312 kts | 174° |
| 2026-05-03 23:37 | 30.89138 | 31.35129 | 12845 ft | 311 kts | 173° |
| 2026-05-03 23:37 | 30.87075 | 31.35861 | 12483 ft | 309 kts | 173° |
| 2026-05-03 23:38 | 30.86743 | 31.35979 | 12395 ft | 309 kts | 173° |
| 2026-05-03 23:38 | 30.85636 | 31.36372 | 12205 ft | 308 kts | 173° |
| 2026-05-03 23:38 | 30.83589 | 31.37098 | 11855 ft | 307 kts | 173° |
| 2026-05-03 23:38 | 30.81550 | 31.37822 | 11510 ft | 306 kts | 172° |
| 2026-05-03 23:39 | 30.79519 | 31.38543 | 11167 ft | 304 kts | 172° |
| 2026-05-03 23:39 | 30.77498 | 31.39261 | 10828 ft | 303 kts | 172° |
| 2026-05-03 23:39 | 30.75490 | 31.39975 | 10494 ft | 301 kts | 171° |
| 2026-05-03 23:39 | 30.73489 | 31.40687 | 10160 ft | 300 kts | 171° |
| 2026-05-03 23:40 | 30.71498 | 31.41392 | 9822 ft | 299 kts | 171° |
| 2026-05-03 23:40 | 30.69515 | 31.42095 | 9453 ft | 297 kts | 170° |
| 2026-05-03 23:40 | 30.67544 | 31.42795 | 9126 ft | 294 kts | 170° |
| 2026-05-03 23:40 | 30.65586 | 31.43490 | 8861 ft | 294 kts | 170° |
| 2026-05-03 23:41 | 30.63635 | 31.44183 | 8600 ft | 292 kts | 169° |
| 2026-05-03 23:41 | 30.61718 | 31.44862 | 8349 ft | 291 kts | 169° |
| 2026-05-03 23:41 | 30.59783 | 31.45544 | 8082 ft | 290 kts | 169° |
| 2026-05-03 23:41 | 30.57858 | 31.46222 | 7812 ft | 288 kts | 169° |
| 2026-05-03 23:42 | 30.55943 | 31.46898 | 7537 ft | 287 kts | 169° |
| 2026-05-03 23:42 | 30.54041 | 31.47573 | 7268 ft | 285 kts | 168° |
| 2026-05-03 23:42 | 30.52150 | 31.48245 | 7004 ft | 284 kts | 168° |
| 2026-05-03 23:42 | 30.50267 | 31.48913 | 6730 ft | 282 kts | 168° |
| 2026-05-03 23:43 | 30.48393 | 31.49576 | 6464 ft | 281 kts | 168° |
| 2026-05-03 23:43 | 30.46526 | 31.50236 | 6179 ft | 279 kts | 167° |
| 2026-05-03 23:43 | 30.44671 | 31.50892 | 5905 ft | 278 kts | 167° |
| 2026-05-03 23:43 | 30.42821 | 31.51546 | 5623 ft | 278 kts | 167° |
| 2026-05-03 23:44 | 30.40974 | 31.52198 | 5339 ft | 277 kts | 167° |
| 2026-05-03 23:44 | 30.39137 | 31.52845 | 5063 ft | 275 kts | 168° |
| 2026-05-03 23:44 | 30.37314 | 31.53487 | 4785 ft | 273 kts | 167° |
| 2026-05-03 23:44 | 30.35499 | 31.54123 | 4503 ft | 271 kts | 167° |
| 2026-05-03 23:45 | 30.33711 | 31.54752 | 4214 ft | 266 kts | 167° |
| 2026-05-03 23:45 | 30.31948 | 31.55374 | 3928 ft | 262 kts | 167° |
| 2026-05-03 23:45 | 30.30216 | 31.55985 | 3649 ft | 258 kts | 166° |
| 2026-05-03 23:45 | 30.28512 | 31.56589 | 3366 ft | 254 kts | 166° |
| 2026-05-03 23:46 | 30.26848 | 31.57180 | 3089 ft | 249 kts | 166° |
| 2026-05-03 23:46 | 30.25198 | 31.57751 | 2818 ft | 245 kts | 167° |
| 2026-05-03 23:46 | 30.23565 | 31.57982 | 2538 ft | 236 kts | 187° |
| 2026-05-03 23:46 | 30.22040 | 31.57556 | 2391 ft | 218 kts | 207° |
| 2026-05-03 23:47 | 30.20816 | 31.56661 | 2179 ft | 202 kts | 226° |
| 2026-05-03 23:47 | 30.19930 | 31.55511 | 2111 ft | 181 kts | 235° |
| 2026-05-03 23:47 | 30.19129 | 31.54458 | 2035 ft | 171 kts | 233° |
| 2026-05-03 23:47 | 30.18341 | 31.53416 | 2073 ft | 172 kts | 233° |
| 2026-05-03 23:48 | 30.17552 | 31.52375 | 2065 ft | 172 kts | 234° |
| 2026-05-03 23:48 | 30.16767 | 31.51324 | 1906 ft | 173 kts | 234° |
| 2026-05-03 23:48 | 30.16010 | 31.50309 | 1720 ft | 161 kts | 234° |
| 2026-05-03 23:48 | 30.15307 | 31.49373 | 1490 ft | 148 kts | 234° |
| 2026-05-03 23:49 | 30.14657 | 31.48504 | 1275 ft | 140 kts | 234° |
| 2026-05-03 23:49 | 30.14016 | 31.47649 | 1092 ft | 142 kts | 234° |
| 2026-05-03 23:49 | 30.13373 | 31.46792 | 907 ft | 141 kts | 233° |
| 2026-05-03 23:49 | 30.12733 | 31.45936 | 720 ft | 140 kts | 233° |
| 2026-05-03 23:50 | 30.12089 | 31.45073 | 519 ft | 142 kts | 233° |
| 2026-05-03 23:50 | 30.11668 | 31.44507 | 449 ft | 132 kts | 232° |
| 2026-05-03 23:50 | 30.10996 | 31.43591 | 449 ft | 94 kts | 226° |
| 2026-05-03 23:50 | 30.10610 | 31.43103 | 449 ft | 73 kts | 230° |
| 2026-05-03 23:51 | 30.10313 | 31.42703 | 448 ft | 61 kts | 229° |
| 2026-05-03 23:51 | 30.10050 | 31.42350 | 448 ft | 55 kts | 229° |
| 2026-05-03 23:51 | 30.09844 | 31.42058 | 449 ft | 39 kts | 231° |
| 2026-05-03 23:51 | 30.09755 | 31.41905 | 449 ft | 17 kts | 269° |
| 2026-05-03 23:52 | 30.09822 | 31.41799 | 449 ft | 17 kts | 317° |
| 2026-05-03 23:52 | 30.09900 | 31.41712 | 450 ft | 14 kts | 303° |
| 2026-05-03 23:52 | 30.09903 | 31.41602 | 450 ft | 15 kts | 259° |
| 2026-05-03 23:52 | 30.09883 | 31.41479 | 450 ft | 16 kts | 259° |
| 2026-05-03 23:53 | 30.09860 | 31.41349 | 451 ft | 17 kts | 258° |
| 2026-05-03 23:53 | 30.09838 | 31.41208 | 450 ft | 19 kts | 259° |
| 2026-05-03 23:53 | 30.09814 | 31.41053 | 448 ft | 21 kts | 260° |
| 2026-05-03 23:53 | 30.09786 | 31.40871 | 437 ft | 22 kts | 261° |
| 2026-05-03 23:54 | 30.09817 | 31.40712 | 428 ft | 24 kts | 320° |
| 2026-05-03 23:54 | 30.09961 | 31.40571 | 417 ft | 30 kts | 319° |
| 2026-05-03 23:54 | 30.10136 | 31.40394 | 398 ft | 36 kts | 319° |
| 2026-05-03 23:54 | 30.10329 | 31.40212 | 388 ft | 33 kts | 320° |
| 2026-05-03 23:55 | 30.10446 | 31.40115 | 392 ft | 15 kts | 345° |
| 2026-05-03 23:55 | 30.10532 | 31.40185 | 390 ft | 15 kts | 49° |
| 2026-05-03 23:55 | 30.10595 | 31.40270 | 390 ft | 12 kts | 50° |
| 2026-05-03 23:55 | 30.10658 | 31.40322 | 387 ft | 13 kts | 9° |
| 2026-05-03 23:56 | 30.10720 | 31.40311 | 386 ft | 0 kts | 329° |
| 2026-05-03 23:56 | 30.10721 | 31.40311 | 386 ft | 0 kts | 329° |
| 2026-05-03 23:56 | 30.10723 | 31.40300 | 386 ft | 4 kts | 282° |
| 2026-05-03 23:56 | 30.10713 | 31.40270 | 387 ft | 4 kts | 238° |
| 2026-05-03 23:57 | 30.10689 | 31.40237 | 387 ft | 7 kts | 230° |
| 2026-05-03 23:57 | 30.10644 | 31.40176 | 384 ft | 13 kts | 229° |
| 2026-05-03 23:57 | 30.10580 | 31.40091 | 381 ft | 16 kts | 229° |
| 2026-05-03 23:57 | 30.10516 | 31.40005 | 379 ft | 14 kts | 229° |
| 2026-05-03 23:58 | 30.10457 | 31.39928 | 380 ft | 12 kts | 228° |
| 2026-05-03 23:58 | 30.10400 | 31.39853 | 380 ft | 11 kts | 229° |
| 2026-05-03 23:58 | 30.10388 | 31.39788 | 379 ft | 9 kts | 319° |
| 2026-05-03 23:58 | 30.10470 | 31.39760 | 375 ft | 15 kts | 346° |
| 2026-05-03 23:59 | 30.10537 | 31.39740 | 371 ft | 8 kts | 346° |
| 2026-05-03 23:59 | 30.10601 | 31.39718 | 375 ft | 9 kts | 336° |
| 2026-05-03 23:59 | 30.10623 | 31.39684 | 370 ft | 7 kts | 287° |
| 2026-05-03 23:59 | 30.10619 | 31.39623 | 373 ft | 9 kts | 257° |
| 2026-05-04 00:00 | 30.10602 | 31.39545 | 370 ft | 11 kts | 256° |
| 2026-05-04 00:00 | 30.10636 | 31.39471 | 370 ft | 12 kts | 340° |
| 2026-05-04 00:00 | 30.10709 | 31.39448 | 372 ft | 10 kts | 346° |
| 2026-05-04 00:00 | 30.10767 | 31.39431 | 372 ft | 8 kts | 346° |
| 2026-05-04 00:01 | 30.10820 | 31.39416 | 373 ft | 7 kts | 351° |
| 2026-05-04 00:01 | 30.10848 | 31.39442 | 371 ft | 5 kts | 70° |
| 2026-05-04 00:01 | 30.10853 | 31.39472 | 373 ft | 3 kts | 81° |
| 2026-05-04 00:01 | 30.10855 | 31.39487 | 374 ft | 1 kts | 81° |